Aérodrome :
LOGIN :

S'inscrire | Disclaimer

   EN    FR    IT 

 










Légende :    VFR   VFR Marginal   IFR   IFR Intensif   IFR Très Intensif
Visi : 
Plafond : 
>= 8 km
>= 3000ft
5 à 8 km
1000 à 3000 ft
1500m à 5 km
500 à 1000 ft
800 à 1500m
200 à 500 ft
< 800m
< 200 ft
Symboles :   Orages  Brouillard  Fortes neiges  Fortes précipitations  Vent > 20 kt
SIGMETs :   Divers  Orages  Givrage  Turbulence  Onde Orograph.  Cendres Volcan.







- Altitude de l'aérodrome : 11 ft
- Code IATA : PVK


LGPZ - Aktion Lefkada Preveza

DERNIER METAR :
  • 240320Z 11024G35KT 9999 FEW015 SCT020 OVC070 06/M03 Q1021

METARs EXPIRÉS :
  • 240250Z 11022G32KT 9999 FEW015 SCT020 OVC070 07/M05 Q1021
  • 240150Z 11023KT 9999 FEW015 SCT020 OVC070 07/M04 Q1021
  • 240050Z 06021G32KT 9999 FEW015 SCT020 OVC070 07/M00 Q1020

TAF TAF LGPZ
Valide du 24 à 00h jusqu'au 25 à 00h UTC


232300Z 2400/2424 10025G38KT 9999 FEW015 SCT020 BKN070
PROB30
TEMPO 2400/2412 5000 RA
BECMG 2406/2408 10020G30KT
Pas de NOTAMs connus pour ce terrain.
3 SIGMETs publiés pour la FIR Athinai (LGGG) :
 
Orages noyés dans la masse
LGGG SIGMET 2 VALID 240300/240700 LGAT
LGGG ATHINAI FIR/UIR EMBD TS OBS S OF N3740 STNR NC=
Turbulence forte
LGGG SIGMET 17 VALID 232345/240345 LGAT
LGGG ATHINAI FIR SEV TURB FCST N OF LINE N3900 E02640 - N3550 E02320 - N3700 E01900 SFC/FL150 STNR NC=
Givrage fort
LGGG SIGMET 1 VALID 240200/240600 LGAT
LGGG ATHINAI FIR/UIR SEV ICE FCST N OF LINE N3900 E02640 - N3640 E02220 - N3940 E02030 ABV SFC STNR NC=



MET'MAP, la Météo Aéronautique d'un coup d'oeil ! - Copyright ORBIFLY Décembre 2007 - Disclaimer

ORBIFLY MET'MAP TEAM :

Programmation & Développement : Alexandra Zaïnal
Conception & Développement : Baudouin d'Aumeries
Co-Programmation & Développement : Marc-Olivier Méhu
Soutien technique & logistique : Manuel Goepfert

Contact : metmap@orbifly.com




SOURCES & CREDITS :

   NOAA